createdAt,value
2018-05-02T00:00:08.404Z,18.80
2018-05-02T00:01:13.195Z,18.80
2018-05-02T00:02:18.066Z,18.70
2018-05-02T00:03:23.192Z,18.70
2018-05-02T00:04:28.335Z,18.70
2018-05-02T00:05:33.650Z,18.70
2018-05-02T00:06:38.774Z,18.70
2018-05-02T00:07:43.482Z,18.70
2018-05-02T00:08:48.223Z,18.70
2018-05-02T00:09:53.103Z,18.70
2018-05-02T00:10:58.003Z,18.70
2018-05-02T00:12:02.909Z,18.70
2018-05-02T00:13:07.823Z,18.70
2018-05-02T00:14:12.576Z,18.70
2018-05-02T00:15:17.279Z,18.70
2018-05-02T00:16:21.976Z,18.70
2018-05-02T00:17:26.786Z,18.70
2018-05-02T00:18:31.495Z,18.70
2018-05-02T00:19:36.197Z,18.70
2018-05-02T00:20:40.862Z,18.70
2018-05-02T00:21:45.556Z,18.70
2018-05-02T00:22:50.287Z,18.70
2018-05-02T00:23:55.374Z,18.70
2018-05-02T00:25:00.190Z,18.70
2018-05-02T00:26:05.192Z,18.70
2018-05-02T00:27:09.839Z,18.70
2018-05-02T00:28:14.620Z,18.70
2018-05-02T00:29:19.381Z,18.70
2018-05-02T00:30:24.305Z,18.70
2018-05-02T00:31:29.330Z,18.70
2018-05-02T00:32:34.016Z,18.70
2018-05-02T00:33:39.157Z,18.70
2018-05-02T00:34:44.299Z,18.70
2018-05-02T00:35:49.422Z,18.70
2018-05-02T00:36:54.122Z,18.70
2018-05-02T00:37:59.199Z,18.70
2018-05-02T00:39:04.083Z,18.70
2018-05-02T00:40:08.937Z,18.70
2018-05-02T00:41:13.939Z,18.70
2018-05-02T00:42:18.840Z,18.70
2018-05-02T00:43:23.593Z,18.70
2018-05-02T00:44:28.427Z,18.70
2018-05-02T00:45:33.324Z,18.70
2018-05-02T00:46:38.152Z,18.70
2018-05-02T00:47:43.054Z,18.70
2018-05-02T00:48:47.941Z,18.70
2018-05-02T00:49:52.803Z,18.70
2018-05-02T00:50:57.507Z,18.60
2018-05-02T00:52:02.369Z,18.60
2018-05-02T00:53:07.149Z,18.60
2018-05-02T00:54:11.808Z,18.60
2018-05-02T00:55:16.624Z,18.60
2018-05-02T00:56:21.460Z,18.60
2018-05-02T00:57:26.505Z,18.60
2018-05-02T00:58:31.174Z,18.60
2018-05-02T00:59:36.108Z,18.60
2018-05-02T01:00:40.958Z,18.60
2018-05-02T01:01:45.735Z,18.60
2018-05-02T01:02:50.700Z,18.60
2018-05-02T01:03:55.682Z,18.60
2018-05-02T01:05:00.322Z,18.60
2018-05-02T01:06:05.071Z,18.60
2018-05-02T01:07:09.830Z,18.60
2018-05-02T01:08:14.815Z,18.60
2018-05-02T01:09:19.605Z,18.60
2018-05-02T01:10:24.261Z,18.60
2018-05-02T01:11:28.993Z,18.60
2018-05-02T01:12:33.713Z,18.60
2018-05-02T01:13:38.323Z,18.60
2018-05-02T01:14:43.261Z,18.60
2018-05-02T01:15:47.919Z,18.60
2018-05-02T01:16:52.698Z,18.60
2018-05-02T01:17:57.553Z,18.60
2018-05-02T01:19:02.367Z,18.60
2018-05-02T01:20:07.379Z,18.60
2018-05-02T01:21:12.284Z,18.60
2018-05-02T01:22:16.968Z,18.60
2018-05-02T01:23:21.822Z,18.60
2018-05-02T01:24:26.849Z,18.60
2018-05-02T01:25:31.692Z,18.60
2018-05-02T01:26:36.494Z,18.60
2018-05-02T01:27:41.589Z,18.60
2018-05-02T01:28:46.527Z,18.60
2018-05-02T01:29:51.409Z,18.60
2018-05-02T01:30:56.275Z,18.60
2018-05-02T01:32:01.211Z,18.60
2018-05-02T01:33:06.035Z,18.60
2018-05-02T01:34:10.966Z,18.60
2018-05-02T01:35:15.607Z,18.60
2018-05-02T01:36:20.530Z,18.60
2018-05-02T01:37:25.330Z,18.60
2018-05-02T01:38:30.038Z,18.60
2018-05-02T01:39:35.124Z,18.60
2018-05-02T01:40:40.148Z,18.60
2018-05-02T01:41:45.198Z,18.60
2018-05-02T01:42:50.016Z,18.60
2018-05-02T01:43:55.044Z,18.60
2018-05-02T01:45:00.096Z,18.60
2018-05-02T01:46:04.706Z,18.60
2018-05-02T01:47:09.411Z,18.60
2018-05-02T01:48:14.240Z,18.60
2018-05-02T01:49:19.087Z,18.60
2018-05-02T01:50:23.862Z,18.60
2018-05-02T01:51:28.836Z,18.60
2018-05-02T01:52:33.844Z,18.60
2018-05-02T01:53:38.798Z,18.60
2018-05-02T01:54:43.662Z,18.60
2018-05-02T01:55:48.585Z,18.60
2018-05-02T01:56:53.540Z,18.50
2018-05-02T01:57:58.763Z,18.60
2018-05-02T01:59:03.524Z,18.50
2018-05-02T02:00:08.331Z,18.50
2018-05-02T02:01:13.209Z,18.50
2018-05-02T02:02:18.040Z,18.50
2018-05-02T02:03:22.689Z,18.50
2018-05-02T02:04:27.356Z,18.50
2018-05-02T02:05:32.093Z,18.50
2018-05-02T02:06:37.059Z,18.50
2018-05-02T02:07:41.897Z,18.50
2018-05-02T02:08:46.771Z,18.50
2018-05-02T02:09:51.459Z,18.50
2018-05-02T02:10:56.497Z,18.50
2018-05-02T02:12:01.317Z,18.50
2018-05-02T02:13:06.044Z,18.50
2018-05-02T02:14:10.885Z,18.50
2018-05-02T02:15:15.745Z,18.50
2018-05-02T02:16:20.603Z,18.50
2018-05-02T02:17:25.355Z,18.50
2018-05-02T02:18:30.513Z,18.50
2018-05-02T02:19:35.498Z,18.50
2018-05-02T02:20:40.578Z,18.50
2018-05-02T02:21:45.517Z,18.50
2018-05-02T02:22:50.336Z,18.50
2018-05-02T02:23:55.197Z,18.50
2018-05-02T02:24:59.981Z,18.50
2018-05-02T02:26:04.831Z,18.50
2018-05-02T02:27:09.880Z,18.50
2018-05-02T02:28:14.621Z,18.50
2018-05-02T02:29:19.522Z,18.50
2018-05-02T02:30:24.514Z,18.50
2018-05-02T02:31:29.299Z,18.50
2018-05-02T02:32:34.251Z,18.50
2018-05-02T02:33:39.178Z,18.50
2018-05-02T02:34:44.074Z,18.50
2018-05-02T02:35:49.215Z,18.50
2018-05-02T02:36:54.369Z,18.50
2018-05-02T02:37:59.445Z,18.50
2018-05-02T02:39:04.674Z,18.50
2018-05-02T02:40:09.835Z,18.50
2018-05-02T02:41:14.718Z,18.50
2018-05-02T02:42:19.733Z,18.50
2018-05-02T02:43:24.796Z,18.50
2018-05-02T02:44:29.894Z,18.50
2018-05-02T02:45:34.865Z,18.50
2018-05-02T02:46:39.674Z,18.50
2018-05-02T02:47:44.544Z,18.50
2018-05-02T02:48:49.405Z,18.50
2018-05-02T02:49:54.468Z,18.50
2018-05-02T02:50:59.257Z,18.50
2018-05-02T02:52:04.302Z,18.50
2018-05-02T02:53:09.192Z,18.50
2018-05-02T02:54:14.076Z,18.50
2018-05-02T02:55:18.949Z,18.50
2018-05-02T02:56:23.781Z,18.50
2018-05-02T02:57:28.603Z,18.50
2018-05-02T02:58:33.605Z,18.50
2018-05-02T02:59:38.292Z,18.50
2018-05-02T03:00:43.180Z,18.40
2018-05-02T03:01:47.824Z,18.50
2018-05-02T03:02:52.602Z,18.50
2018-05-02T03:03:57.288Z,18.50
2018-05-02T03:05:02.152Z,18.40
2018-05-02T03:06:07.191Z,18.40
2018-05-02T03:07:11.979Z,18.40
2018-05-02T03:08:16.625Z,18.40
2018-05-02T03:09:21.651Z,18.40
2018-05-02T03:10:26.521Z,18.40
2018-05-02T03:11:31.496Z,18.40
2018-05-02T03:12:36.540Z,18.40
2018-05-02T03:13:41.372Z,18.40
2018-05-02T03:14:46.206Z,18.40
2018-05-02T03:15:51.156Z,18.40
2018-05-02T03:16:55.975Z,18.40
2018-05-02T03:18:00.647Z,18.40
2018-05-02T03:19:05.462Z,18.40
2018-05-02T03:20:10.164Z,18.40
2018-05-02T03:21:14.904Z,18.40
2018-05-02T03:22:19.898Z,18.40
2018-05-02T03:23:24.687Z,18.40
2018-05-02T03:24:29.709Z,18.40
2018-05-02T03:25:34.513Z,18.40
2018-05-02T03:26:39.321Z,18.40
2018-05-02T03:27:44.120Z,18.40
2018-05-02T03:28:48.898Z,18.40
2018-05-02T03:29:53.639Z,18.40
2018-05-02T03:30:58.358Z,18.40
2018-05-02T03:32:03.228Z,18.40
2018-05-02T03:33:08.221Z,18.40
2018-05-02T03:34:13.241Z,18.40
2018-05-02T03:35:18.197Z,18.40
2018-05-02T03:36:23.150Z,18.40
2018-05-02T03:37:28.293Z,18.40
2018-05-02T03:38:33.041Z,18.40
2018-05-02T03:39:37.973Z,18.40
2018-05-02T03:40:42.880Z,18.40
2018-05-02T03:41:47.579Z,18.40
2018-05-02T03:42:52.592Z,18.40
2018-05-02T03:43:57.461Z,18.40
2018-05-02T03:45:02.288Z,18.40
2018-05-02T03:46:07.263Z,18.40
2018-05-02T03:47:12.323Z,18.40
2018-05-02T03:48:17.410Z,18.40
2018-05-02T03:49:22.424Z,18.40
2018-05-02T03:50:27.435Z,18.40
2018-05-02T03:51:32.288Z,18.40
2018-05-02T03:52:37.173Z,18.40
2018-05-02T03:53:42.126Z,18.30
2018-05-02T03:54:47.001Z,18.40
2018-05-02T03:55:52.024Z,18.40
2018-05-02T03:56:56.856Z,18.40
2018-05-02T03:58:01.733Z,18.30
2018-05-02T03:59:06.658Z,18.30
2018-05-02T04:00:11.398Z,18.30
2018-05-02T04:01:16.176Z,18.30
2018-05-02T04:02:21.096Z,18.30
2018-05-02T04:03:25.857Z,18.30
2018-05-02T04:04:30.838Z,18.30
2018-05-02T04:05:35.648Z,18.30
2018-05-02T04:06:40.686Z,18.30
2018-05-02T04:07:45.792Z,18.30
2018-05-02T04:08:50.533Z,18.30
2018-05-02T04:09:55.288Z,18.30
2018-05-02T04:11:00.220Z,18.30
2018-05-02T04:12:05.208Z,18.30
2018-05-02T04:13:09.863Z,18.30
2018-05-02T04:14:14.464Z,18.30
2018-05-02T04:15:19.368Z,18.30
2018-05-02T04:16:24.328Z,18.30
2018-05-02T04:17:29.134Z,18.30
2018-05-02T04:18:33.932Z,18.30
2018-05-02T04:19:38.608Z,18.30
2018-05-02T04:20:43.327Z,18.30
2018-05-02T04:21:48.263Z,18.30
2018-05-02T04:22:52.906Z,18.30
2018-05-02T04:23:57.930Z,18.30
2018-05-02T04:25:02.729Z,18.30
2018-05-02T04:26:07.793Z,18.30
2018-05-02T04:27:12.563Z,18.30
2018-05-02T04:28:17.570Z,18.30
2018-05-02T04:29:22.416Z,18.30
2018-05-02T04:30:27.139Z,18.30
2018-05-02T04:31:32.021Z,18.20
2018-05-02T04:32:36.912Z,18.20
2018-05-02T04:33:41.799Z,18.20
2018-05-02T04:34:46.776Z,18.20
2018-05-02T04:35:51.480Z,18.20
2018-05-02T04:36:56.179Z,18.20
2018-05-02T04:38:01.097Z,18.30
2018-05-02T04:39:05.957Z,18.30
2018-05-02T04:40:10.840Z,18.30
2018-05-02T04:41:15.650Z,18.30
2018-05-02T04:42:20.511Z,18.40
2018-05-02T04:43:25.541Z,18.40
2018-05-02T04:44:30.223Z,18.50
2018-05-02T04:45:35.069Z,18.50
2018-05-02T04:46:39.956Z,18.60
2018-05-02T04:47:44.943Z,18.60
2018-05-02T04:48:49.911Z,18.70
2018-05-02T04:49:54.642Z,18.70
2018-05-02T04:50:59.608Z,18.80
2018-05-02T04:52:04.639Z,18.90
2018-05-02T04:53:09.616Z,18.90
2018-05-02T04:54:14.440Z,19.00
2018-05-02T04:55:19.242Z,19.10
2018-05-02T04:56:25.440Z,19.20
2018-05-02T04:57:32.271Z,19.20
2018-05-02T04:58:37.549Z,19.30
2018-05-02T04:59:42.424Z,19.40
2018-05-02T05:00:47.259Z,19.40
2018-05-02T05:01:52.187Z,19.40
2018-05-02T05:02:57.200Z,19.50
2018-05-02T05:04:02.176Z,19.50
2018-05-02T05:05:07.154Z,19.60
2018-05-02T05:06:12.003Z,19.60
2018-05-02T05:07:16.678Z,19.60
2018-05-02T05:08:21.703Z,19.60
2018-05-02T05:09:26.506Z,19.60
2018-05-02T05:10:31.465Z,19.70
2018-05-02T05:11:36.270Z,19.70
2018-05-02T05:12:41.350Z,19.70
2018-05-02T05:13:46.322Z,19.70
2018-05-02T05:14:51.410Z,19.80
2018-05-02T05:15:56.302Z,19.80
2018-05-02T05:17:01.408Z,19.80
2018-05-02T05:18:06.584Z,19.80
2018-05-02T05:19:11.460Z,19.80
2018-05-02T05:20:16.344Z,19.80
2018-05-02T05:21:21.157Z,19.80
2018-05-02T05:22:26.154Z,19.80
2018-05-02T05:23:31.009Z,19.80
2018-05-02T05:24:35.878Z,19.80
2018-05-02T05:25:40.813Z,19.80
2018-05-02T05:26:45.642Z,19.80
2018-05-02T05:27:50.476Z,19.80
2018-05-02T05:28:55.123Z,19.80
2018-05-02T05:30:00.078Z,19.80
2018-05-02T05:31:04.937Z,19.80
2018-05-02T05:32:10.131Z,19.70
2018-05-02T05:33:15.258Z,19.70
2018-05-02T05:34:20.168Z,19.70
2018-05-02T05:35:25.275Z,19.70
2018-05-02T05:36:30.179Z,19.70
2018-05-02T05:37:35.307Z,19.70
2018-05-02T05:38:40.280Z,19.70
2018-05-02T05:39:45.205Z,19.70
2018-05-02T05:40:50.042Z,19.70
2018-05-02T05:41:54.705Z,19.60
2018-05-02T05:42:59.774Z,19.60
2018-05-02T05:44:04.664Z,19.60
2018-05-02T05:45:09.591Z,19.60
2018-05-02T05:46:14.575Z,19.60
2018-05-02T05:47:19.497Z,19.60
2018-05-02T05:48:24.365Z,19.60
2018-05-02T05:49:29.421Z,19.60
2018-05-02T05:50:34.173Z,19.60
2018-05-02T05:51:39.259Z,19.60
2018-05-02T05:52:44.019Z,19.50
2018-05-02T05:53:49.168Z,19.50
2018-05-02T05:54:54.201Z,19.50
2018-05-02T05:55:59.197Z,19.50
2018-05-02T05:57:04.194Z,19.40
2018-05-02T05:58:09.311Z,19.50
2018-05-02T05:59:14.295Z,19.50
2018-05-02T06:00:19.312Z,19.50
2018-05-02T06:01:24.759Z,19.50
2018-05-02T06:02:30.477Z,19.40
2018-05-02T06:03:35.523Z,19.40
2018-05-02T06:04:40.421Z,19.40
2018-05-02T06:05:45.386Z,19.40
2018-05-02T06:06:50.264Z,19.40
2018-05-02T06:07:55.080Z,19.40
2018-05-02T06:08:59.916Z,19.40
2018-05-02T06:10:04.719Z,19.40
2018-05-02T06:11:09.408Z,19.40
2018-05-02T06:12:14.258Z,19.40
2018-05-02T06:13:19.208Z,19.40
2018-05-02T06:14:24.156Z,19.30
2018-05-02T06:15:29.537Z,19.30
2018-05-02T06:16:34.353Z,19.30
2018-05-02T06:17:39.302Z,19.30
2018-05-02T06:18:44.047Z,19.30
2018-05-02T06:19:49.046Z,19.30
2018-05-02T06:20:53.769Z,19.30
2018-05-02T06:21:58.987Z,19.30
2018-05-02T06:23:03.964Z,19.30
2018-05-02T06:24:08.812Z,19.30
2018-05-02T06:25:13.837Z,19.30
2018-05-02T06:26:18.811Z,19.30
2018-05-02T06:27:23.874Z,19.20
2018-05-02T06:28:28.882Z,19.20
2018-05-02T06:29:33.958Z,19.30
2018-05-02T06:30:38.813Z,19.20
2018-05-02T06:31:43.860Z,19.20
2018-05-02T06:32:48.863Z,19.20
2018-05-02T06:33:53.904Z,19.20
2018-05-02T06:34:58.888Z,19.20
2018-05-02T06:36:03.887Z,19.20
2018-05-02T06:37:08.937Z,19.20
2018-05-02T06:38:13.847Z,19.20
2018-05-02T06:39:18.847Z,19.20
2018-05-02T06:40:23.726Z,19.20
2018-05-02T06:41:28.676Z,19.20
2018-05-02T06:42:33.727Z,19.20
2018-05-02T06:43:38.767Z,19.20
2018-05-02T06:44:43.643Z,19.20
2018-05-02T06:45:48.502Z,19.20
2018-05-02T06:46:53.193Z,19.10
2018-05-02T06:47:58.109Z,19.10
2018-05-02T06:49:03.120Z,19.10
2018-05-02T06:50:08.116Z,19.10
2018-05-02T06:51:13.094Z,19.10
2018-05-02T06:52:18.074Z,19.10
2018-05-02T06:53:23.046Z,19.10
2018-05-02T06:54:28.030Z,19.10
2018-05-02T06:55:32.909Z,19.10
2018-05-02T06:56:38.017Z,19.10
2018-05-02T06:57:42.876Z,19.10
2018-05-02T06:58:49.823Z,19.10
2018-05-02T06:59:55.412Z,19.10
2018-05-02T07:01:00.428Z,19.10
2018-05-02T07:02:05.459Z,19.10
2018-05-02T07:03:10.225Z,19.10
2018-05-02T07:04:15.123Z,19.10
2018-05-02T07:05:19.807Z,19.10
2018-05-02T07:06:24.646Z,19.10
2018-05-02T07:07:29.517Z,19.10
2018-05-02T07:08:34.676Z,19.00
2018-05-02T07:09:39.589Z,19.00
2018-05-02T07:10:44.673Z,19.00
2018-05-02T07:11:49.594Z,19.00
2018-05-02T07:12:54.624Z,19.00
2018-05-02T07:13:59.566Z,19.00
2018-05-02T07:15:04.383Z,18.90
2018-05-02T07:16:09.330Z,19.00
2018-05-02T07:17:14.211Z,18.90
2018-05-02T07:18:19.090Z,18.90
2018-05-02T07:19:24.085Z,19.00
2018-05-02T07:20:28.863Z,18.90
2018-05-02T07:21:33.955Z,18.90
2018-05-02T07:22:38.628Z,18.90
2018-05-02T07:23:43.983Z,18.90
2018-05-02T07:24:49.381Z,18.90
2018-05-02T07:25:54.321Z,18.90
2018-05-02T07:26:59.197Z,19.00
2018-05-02T07:28:03.961Z,19.00
2018-05-02T07:29:08.604Z,19.00
2018-05-02T07:30:13.288Z,19.00
2018-05-02T07:31:18.175Z,19.00
2018-05-02T07:32:23.153Z,19.00
2018-05-02T07:33:27.850Z,19.00
2018-05-02T07:34:32.512Z,19.00
2018-05-02T07:35:37.251Z,19.00
2018-05-02T07:36:42.204Z,19.00
2018-05-02T07:37:46.870Z,19.00
2018-05-02T07:38:51.747Z,19.00
2018-05-02T07:39:56.804Z,19.00
2018-05-02T07:41:01.832Z,19.00
2018-05-02T07:42:07.008Z,19.00
2018-05-02T07:43:12.170Z,19.00
2018-05-02T07:44:16.853Z,19.00
2018-05-02T07:45:22.049Z,19.00
2018-05-02T07:46:26.985Z,19.00
2018-05-02T07:47:31.942Z,19.00
2018-05-02T07:48:36.805Z,19.00
2018-05-02T07:49:41.654Z,19.00
2018-05-02T07:50:46.526Z,19.00
2018-05-02T07:51:51.254Z,19.00
2018-05-02T07:52:56.208Z,19.00
2018-05-02T07:54:01.010Z,19.10
2018-05-02T07:55:05.858Z,19.10
2018-05-02T07:56:10.796Z,19.10
2018-05-02T07:57:15.705Z,19.10
2018-05-02T07:58:20.563Z,19.10
2018-05-02T07:59:25.435Z,19.10
2018-05-02T08:00:30.252Z,19.10
2018-05-02T08:01:35.063Z,19.10
2018-05-02T08:02:39.794Z,19.10
2018-05-02T08:03:44.737Z,19.00
2018-05-02T08:04:49.801Z,19.00
2018-05-02T08:05:54.456Z,19.00
2018-05-02T08:06:59.140Z,19.00
2018-05-02T08:08:03.886Z,19.00
2018-05-02T08:09:08.519Z,19.00
2018-05-02T08:10:13.368Z,19.00
2018-05-02T08:11:18.159Z,19.00
2018-05-02T08:12:22.812Z,19.00
2018-05-02T08:13:27.577Z,18.90
2018-05-02T08:14:32.195Z,18.90
2018-05-02T08:15:36.854Z,18.90
2018-05-02T08:16:41.763Z,18.90
2018-05-02T08:17:46.520Z,18.90
2018-05-02T08:18:51.386Z,18.90
2018-05-02T08:19:56.449Z,18.90
2018-05-02T08:21:02.080Z,18.90
2018-05-02T08:22:07.017Z,18.90
2018-05-02T08:23:11.616Z,18.90
2018-05-02T08:24:16.669Z,18.90
2018-05-02T08:25:21.310Z,18.90
2018-05-02T08:26:26.108Z,18.90
2018-05-02T08:27:31.023Z,18.90
2018-05-02T08:28:35.944Z,18.90
2018-05-02T08:29:40.721Z,18.90
2018-05-02T08:30:45.529Z,18.90
2018-05-02T08:31:50.173Z,18.90
2018-05-02T08:32:55.017Z,18.90
2018-05-02T08:33:59.810Z,18.90
2018-05-02T08:35:04.628Z,18.90
2018-05-02T08:36:09.575Z,18.90
2018-05-02T08:37:14.525Z,18.90
2018-05-02T08:38:19.412Z,18.90
2018-05-02T08:39:24.216Z,18.90
2018-05-02T08:40:29.548Z,18.90
2018-05-02T08:41:35.085Z,18.90
2018-05-02T08:42:39.856Z,18.90
2018-05-02T08:43:44.923Z,18.90
2018-05-02T08:44:50.023Z,18.90
2018-05-02T08:45:54.822Z,18.90
2018-05-02T08:46:59.892Z,18.90
2018-05-02T08:48:04.953Z,18.90
2018-05-02T08:49:09.904Z,18.90
2018-05-02T08:50:15.002Z,18.90
2018-05-02T08:51:19.726Z,18.90
2018-05-02T08:52:24.695Z,19.00
2018-05-02T08:53:29.687Z,19.10
2018-05-02T08:54:34.506Z,19.10
2018-05-02T08:55:39.742Z,19.10
2018-05-02T08:56:44.687Z,19.10
2018-05-02T08:57:49.646Z,19.10
2018-05-02T08:58:54.655Z,19.10
2018-05-02T09:00:00.294Z,19.10
2018-05-02T09:01:05.449Z,19.10
2018-05-02T09:02:10.140Z,19.00
2018-05-02T09:03:15.042Z,19.00
2018-05-02T09:04:19.742Z,19.00
2018-05-02T09:05:24.653Z,18.90
2018-05-02T09:06:29.461Z,18.90
2018-05-02T09:07:34.468Z,18.90
2018-05-02T09:08:39.243Z,18.90
2018-05-02T09:09:44.039Z,18.90
2018-05-02T09:10:49.073Z,18.90
2018-05-02T09:11:53.979Z,18.90
2018-05-02T09:12:59.005Z,18.90
2018-05-02T09:14:03.838Z,18.90
2018-05-02T09:15:08.778Z,18.90
2018-05-02T09:16:13.447Z,18.90
2018-05-02T09:17:18.418Z,18.90
2018-05-02T09:18:23.435Z,18.90
2018-05-02T09:19:28.164Z,18.90
2018-05-02T09:20:33.756Z,18.90
2018-05-02T09:21:38.429Z,18.90
2018-05-02T09:22:43.087Z,18.90
2018-05-02T09:23:47.863Z,18.90
2018-05-02T09:24:52.672Z,18.90
2018-05-02T09:25:57.348Z,18.90
2018-05-02T09:27:02.149Z,18.90
2018-05-02T09:28:07.084Z,18.90
2018-05-02T09:29:11.833Z,18.90
2018-05-02T09:30:16.683Z,18.90
2018-05-02T09:31:21.696Z,18.90
2018-05-02T09:32:26.699Z,18.90
2018-05-02T09:33:31.526Z,18.90
2018-05-02T09:34:36.346Z,18.90
2018-05-02T09:35:41.029Z,18.90
2018-05-02T09:36:45.805Z,18.90
2018-05-02T09:37:50.759Z,18.90
2018-05-02T09:38:55.565Z,18.90
2018-05-02T09:40:02.905Z,18.90
2018-05-02T09:41:07.893Z,18.90
2018-05-02T09:42:12.670Z,18.90
2018-05-02T09:43:17.297Z,19.00
2018-05-02T09:44:22.245Z,19.00
2018-05-02T09:45:27.316Z,19.00
2018-05-02T09:46:32.541Z,19.00
2018-05-02T09:47:37.506Z,19.00
2018-05-02T09:48:42.335Z,19.00
2018-05-02T09:49:47.138Z,19.00
2018-05-02T09:50:51.878Z,19.00
2018-05-02T09:51:56.838Z,19.00
2018-05-02T09:53:01.907Z,19.00
2018-05-02T09:54:06.866Z,19.00
2018-05-02T09:55:11.804Z,19.00
2018-05-02T09:56:18.111Z,19.00
2018-05-02T09:57:23.393Z,19.00
2018-05-02T09:58:28.323Z,19.00
2018-05-02T09:59:33.127Z,19.00
2018-05-02T10:00:37.975Z,19.00
2018-05-02T10:01:42.766Z,19.00
2018-05-02T10:02:47.718Z,19.00
2018-05-02T10:03:52.719Z,19.00
2018-05-02T10:04:57.558Z,19.00
2018-05-02T10:06:02.407Z,19.00
2018-05-02T10:07:07.229Z,19.00
2018-05-02T10:08:12.259Z,19.00
2018-05-02T10:09:17.093Z,19.00
2018-05-02T10:10:22.017Z,19.10
2018-05-02T10:11:26.674Z,19.10
2018-05-02T10:12:31.446Z,19.10
2018-05-02T10:13:36.365Z,19.10
2018-05-02T10:14:41.337Z,19.10
2018-05-02T10:15:46.193Z,19.00
2018-05-02T10:16:52.583Z,19.00
2018-05-02T10:17:57.602Z,19.00
2018-05-02T10:19:02.474Z,19.00
2018-05-02T10:20:07.348Z,19.00
2018-05-02T10:21:12.389Z,19.00
2018-05-02T10:22:17.006Z,19.00
2018-05-02T10:23:21.732Z,19.00
2018-05-02T10:24:26.788Z,19.00
2018-05-02T10:25:31.622Z,19.00
2018-05-02T10:26:36.663Z,19.00
2018-05-02T10:27:41.393Z,19.00
2018-05-02T10:28:46.012Z,19.00
2018-05-02T10:29:50.816Z,19.00
2018-05-02T10:30:55.825Z,19.00
2018-05-02T10:32:00.726Z,19.00
2018-05-02T10:33:05.547Z,18.90
2018-05-02T10:34:10.200Z,18.90
2018-05-02T10:35:15.194Z,18.90
2018-05-02T10:36:19.949Z,18.90
2018-05-02T10:37:30.124Z,18.90
2018-05-02T10:38:35.065Z,18.90
2018-05-02T10:39:40.019Z,18.90
2018-05-02T10:40:44.877Z,18.90
2018-05-02T10:41:49.730Z,18.90
2018-05-02T10:42:54.391Z,18.80
2018-05-02T10:43:59.275Z,18.80
2018-05-02T10:45:04.065Z,18.80
2018-05-02T10:46:10.434Z,18.80
2018-05-02T10:47:15.989Z,18.90
2018-05-02T10:48:20.837Z,18.80
2018-05-02T10:49:25.776Z,18.80
2018-05-02T10:50:30.735Z,18.90
2018-05-02T10:51:35.391Z,18.90
2018-05-02T10:52:40.277Z,18.90
2018-05-02T10:53:45.097Z,18.80
2018-05-02T10:54:49.892Z,18.90
2018-05-02T10:55:54.839Z,18.90
2018-05-02T10:56:59.647Z,18.90
2018-05-02T10:58:04.523Z,18.90
2018-05-02T10:59:09.223Z,18.90
2018-05-02T11:00:14.014Z,18.90
2018-05-02T11:01:19.037Z,18.90
2018-05-02T11:02:24.050Z,18.90
2018-05-02T11:03:28.903Z,18.90
2018-05-02T11:04:33.712Z,18.90
2018-05-02T11:05:38.769Z,18.90
2018-05-02T11:06:43.705Z,18.90
2018-05-02T11:07:48.592Z,18.90
2018-05-02T11:08:53.557Z,18.90
2018-05-02T11:09:58.327Z,18.90
2018-05-02T11:11:03.455Z,18.90
2018-05-02T11:12:08.502Z,18.90
2018-05-02T11:13:13.661Z,18.90
2018-05-02T11:14:18.632Z,18.90
2018-05-02T11:15:23.453Z,18.90
2018-05-02T11:16:28.188Z,18.90
2018-05-02T11:17:33.054Z,18.90
2018-05-02T11:18:37.972Z,18.90
2018-05-02T11:19:42.827Z,18.90
2018-05-02T11:20:47.540Z,18.90
2018-05-02T11:21:52.512Z,18.90
2018-05-02T11:22:57.362Z,18.90
2018-05-02T11:24:02.410Z,18.90
2018-05-02T11:25:07.205Z,18.90
2018-05-02T11:26:12.011Z,18.90
2018-05-02T11:27:17.036Z,18.90
2018-05-02T11:28:22.017Z,18.90
2018-05-02T11:29:26.979Z,18.90
2018-05-02T11:30:31.971Z,18.90
2018-05-02T11:31:36.704Z,18.90
2018-05-02T11:32:41.439Z,18.90
2018-05-02T11:33:46.436Z,18.80
2018-05-02T11:34:51.295Z,18.80
2018-05-02T11:35:56.115Z,18.80
2018-05-02T11:37:01.108Z,18.80
2018-05-02T11:38:06.150Z,18.80
2018-05-02T11:39:11.174Z,18.80
2018-05-02T11:40:16.215Z,18.80
2018-05-02T11:41:21.253Z,18.80
2018-05-02T11:42:26.247Z,18.80
2018-05-02T11:43:31.288Z,18.80
2018-05-02T11:44:36.139Z,18.80
2018-05-02T11:45:41.066Z,18.80
2018-05-02T11:46:46.033Z,18.80
2018-05-02T11:47:51.035Z,18.80
2018-05-02T11:48:55.898Z,18.90
2018-05-02T11:50:00.846Z,18.90
2018-05-02T11:51:05.845Z,18.90
2018-05-02T11:52:10.756Z,18.90
2018-05-02T11:53:15.654Z,18.90
2018-05-02T11:54:20.460Z,18.90
2018-05-02T11:55:25.324Z,18.90
2018-05-02T11:56:30.111Z,18.90
2018-05-02T11:57:34.942Z,18.90
2018-05-02T11:58:39.585Z,18.90
2018-05-02T11:59:44.366Z,18.90
2018-05-02T12:00:49.020Z,18.90
2018-05-02T12:01:53.728Z,19.00
2018-05-02T12:02:58.671Z,19.00
2018-05-02T12:04:03.580Z,19.00
2018-05-02T12:05:08.505Z,19.00
2018-05-02T12:06:13.161Z,19.00
2018-05-02T12:07:17.883Z,19.00
2018-05-02T12:08:22.539Z,19.00
2018-05-02T12:09:27.396Z,19.00
2018-05-02T12:10:32.274Z,19.00
2018-05-02T12:11:37.198Z,19.00
2018-05-02T12:12:42.354Z,19.00
2018-05-02T12:13:47.371Z,19.00
2018-05-02T12:14:52.336Z,19.00
2018-05-02T12:15:57.244Z,19.00
2018-05-02T12:17:02.178Z,19.00
2018-05-02T12:18:07.000Z,19.00
2018-05-02T12:19:12.034Z,19.00
2018-05-02T12:20:17.093Z,19.00
2018-05-02T12:21:21.912Z,19.00
2018-05-02T12:22:26.988Z,19.10
2018-05-02T12:23:31.859Z,19.10
2018-05-02T12:24:36.608Z,19.00
2018-05-02T12:25:41.288Z,19.10
2018-05-02T12:26:46.136Z,19.10
2018-05-02T12:27:50.999Z,19.10
2018-05-02T12:28:55.679Z,19.10
2018-05-02T12:30:00.557Z,19.10
2018-05-02T12:31:05.405Z,19.10
2018-05-02T12:32:10.201Z,19.10
2018-05-02T12:33:15.001Z,19.10
2018-05-02T12:34:19.904Z,19.10
2018-05-02T12:35:24.891Z,19.10
2018-05-02T12:36:29.622Z,19.10
2018-05-02T12:37:37.603Z,19.10
2018-05-02T12:38:42.359Z,19.20
2018-05-02T12:39:47.359Z,19.10
2018-05-02T12:40:52.310Z,19.10
2018-05-02T12:41:57.307Z,19.20
2018-05-02T12:43:02.047Z,19.20
2018-05-02T12:44:06.944Z,19.20
2018-05-02T12:45:11.851Z,19.20
2018-05-02T12:46:16.781Z,19.20
2018-05-02T12:47:21.769Z,19.20
2018-05-02T12:48:26.568Z,19.20
2018-05-02T12:49:32.209Z,19.20
2018-05-02T12:50:37.101Z,19.20
2018-05-02T12:51:41.986Z,19.20
2018-05-02T12:52:46.949Z,19.20
2018-05-02T12:53:51.743Z,19.20
2018-05-02T12:54:56.962Z,19.20
2018-05-02T12:56:01.888Z,19.20
2018-05-02T12:57:06.685Z,19.20
2018-05-02T12:58:11.533Z,19.20
2018-05-02T12:59:16.387Z,19.20
2018-05-02T13:00:21.273Z,19.20
2018-05-02T13:01:26.241Z,19.20
2018-05-02T13:02:31.261Z,19.20
2018-05-02T13:03:36.315Z,19.30
2018-05-02T13:04:41.259Z,19.30
2018-05-02T13:05:46.079Z,19.30
2018-05-02T13:06:50.957Z,19.30
2018-05-02T13:07:55.927Z,19.30
2018-05-02T13:09:00.826Z,19.30
2018-05-02T13:10:05.889Z,19.30
2018-05-02T13:11:10.631Z,19.30
2018-05-02T13:12:15.368Z,19.30
2018-05-02T13:13:20.323Z,19.30
2018-05-02T13:14:25.176Z,19.30
2018-05-02T13:15:30.244Z,19.30
2018-05-02T13:16:34.995Z,19.30
2018-05-02T13:17:39.636Z,19.30
2018-05-02T13:18:44.485Z,19.30
2018-05-02T13:19:49.315Z,19.40
2018-05-02T13:20:54.161Z,19.30
2018-05-02T13:21:59.001Z,19.30
2018-05-02T13:23:03.707Z,19.40
2018-05-02T13:24:08.481Z,19.30
2018-05-02T13:25:13.151Z,19.40
2018-05-02T13:26:17.973Z,19.40
2018-05-02T13:27:22.870Z,19.40
2018-05-02T13:28:27.604Z,19.40
2018-05-02T13:29:32.371Z,19.40
2018-05-02T13:30:37.157Z,19.40
2018-05-02T13:31:41.852Z,19.40
2018-05-02T13:32:46.804Z,19.40
2018-05-02T13:33:51.615Z,19.40
2018-05-02T13:34:56.423Z,19.40
2018-05-02T13:36:01.219Z,19.40
2018-05-02T13:37:05.971Z,19.40
2018-05-02T13:38:10.800Z,19.40
2018-05-02T13:39:15.771Z,19.40
2018-05-02T13:40:20.526Z,19.40
2018-05-02T13:41:25.258Z,19.40
2018-05-02T13:42:30.032Z,19.40
2018-05-02T13:43:34.939Z,19.40
2018-05-02T13:44:39.833Z,19.40
2018-05-02T13:45:44.838Z,19.40
2018-05-02T13:46:49.725Z,19.40
2018-05-02T13:47:54.540Z,19.40
2018-05-02T13:48:59.387Z,19.40
2018-05-02T13:50:04.386Z,19.40
2018-05-02T13:51:09.093Z,19.40
2018-05-02T13:52:13.732Z,19.40
2018-05-02T13:53:18.428Z,19.40
2018-05-02T13:54:23.096Z,19.40
2018-05-02T13:55:28.040Z,19.40